Time;durP1;ratioP1;P1;durP2;ratioP2;P2;SDS_P1;SDS_P2;PMS_P1;PMS_P2;Temp;Humidity;BMP_temperature;BMP_pressure;BME280_temperature;BME280_humidity;BME280_pressure;Samples;Min_cycle;Max_cycle;Signal;HPM_P1;HPM_P2
2021/05/02 00:01:34;;;;;;;15.52;5.18;;;;;;;21.16;57.53;99517.50;5025430;28;20091;-22
2021/05/02 00:04:02;;;;;;;13.57;4.88;;;;;;;20.92;57.90;99489.81;5027015;28;20037;-22
2021/05/02 00:06:27;;;;;;;;;;;;;;;21.28;57.57;99508.84;5026210;28;20018;-22
2021/05/02 00:08:53;;;;;;;20.38;5.35;;;;;;;21.52;56.68;99503.22;5043714;28;19920;-23
2021/05/02 00:11:18;;;;;;;14.70;4.90;;;;;;;21.55;56.71;99502.59;5046716;28;20037;-22
2021/05/02 00:13:44;;;;;;;14.68;5.18;;;;;;;21.41;56.47;99471.97;5046751;28;20040;-23
2021/05/02 00:16:09;;;;;;;17.92;4.72;;;;;;;21.23;57.25;99503.56;5046678;28;20412;-22
2021/05/02 00:18:35;;;;;;;13.68;4.47;;;;;;;21.15;56.97;99502.34;5046774;28;20029;-22
2021/05/02 00:21:00;;;;;;;13.20;4.40;;;;;;;21.00;57.86;99491.81;5046725;28;20071;-23
2021/05/02 00:23:26;;;;;;;19.05;4.13;;;;;;;21.00;57.36;99494.53;5045744;28;20029;-23
2021/05/02 00:25:52;;;;;;;15.60;4.85;;;;;;;21.01;57.75;99509.69;5046750;28;20037;-23
2021/05/02 00:28:17;;;;;;;14.95;4.70;;;;;;;20.99;56.91;99501.06;5046927;28;20380;-22
2021/05/02 00:30:43;;;;;;;13.38;4.32;;;;;;;21.09;57.15;99511.69;5029260;28;20037;-23
2021/05/02 00:33:08;;;;;;;16.80;5.18;;;;;;;20.86;57.26;99508.06;5046365;28;20060;-23
2021/05/02 00:35:34;;;;;;;15.93;5.05;;;;;;;20.75;57.86;99507.47;5046819;28;20032;-21
2021/05/02 00:38:00;;;;;;;13.25;4.20;;;;;;;21.01;57.52;99536.81;5045743;28;20095;-22
2021/05/02 00:40:36;;;;;;;15.98;4.63;;;;;;;21.35;56.61;99535.56;5046571;28;20029;-22
2021/05/02 00:43:07;;;;;;;13.68;4.53;;;;;;;21.55;55.63;99518.06;5046354;28;20501;-22
2021/05/02 00:45:33;;;;;;;18.52;4.53;;;;;;;21.50;56.18;99546.13;5050164;28;20047;-22
2021/05/02 00:48:14;;;;;;;14.63;4.70;;;;;;;21.49;56.53;99543.72;5050305;28;20025;-23
2021/05/02 00:50:54;;;;;;;14.65;4.60;;;;;;;21.45;56.66;99516.38;5049342;28;20775;-22
2021/05/02 00:53:52;;;;;;;14.00;4.88;;;;;;;21.25;57.82;99518.41;5050121;28;20036;-23
2021/05/02 00:56:28;;;;;;;;;;;;;;;21.55;56.13;99510.72;5050537;28;20602;-21
2021/05/02 00:59:22;;;;;;;12.23;4.13;;;;;;;21.44;55.52;99504.75;5050384;28;19919;-22
2021/05/02 01:01:52;;;;;;;15.68;3.63;;;;;;;21.00;56.86;99475.53;5049024;28;20548;-22
2021/05/02 01:04:24;;;;;;;21.25;5.35;;;;;;;20.85;56.91;99468.53;5050466;28;20040;-21
2021/05/02 01:06:50;;;;;;;15.55;5.13;;;;;;;20.66;57.31;99457.81;5048704;28;20078;-22
2021/05/02 01:09:16;;;;;;;21.00;5.10;;;;;;;20.77;57.68;99478.16;5049614;28;20452;-21
2021/05/02 01:11:42;;;;;;;15.40;4.35;;;;;;;20.82;57.39;99494.34;5049903;28;20108;-20
2021/05/02 01:14:07;;;;;;;14.30;4.90;;;;;;;20.98;56.41;99483.19;5049288;28;20037;-21
2021/05/02 01:16:36;;;;;;;15.55;5.55;;;;;;;21.02;57.00;99487.72;5048582;28;20029;-22
2021/05/02 01:19:04;;;;;;;15.27;4.30;;;;;;;20.85;57.47;99466.63;5032212;28;20131;-21
2021/05/02 01:21:30;;;;;;;;;;;;;;;20.89;57.18;99460.63;5048877;28;20460;-21
2021/05/02 01:23:58;;;;;;;18.33;4.47;;;;;;;20.29;58.51;99451.41;5049926;28;19916;-22
2021/05/02 01:26:25;;;;;;;19.52;4.65;;;;;;;20.69;57.83;99470.72;5015659;28;20035;-21
2021/05/02 01:28:52;;;;;;;15.63;4.82;;;;;;;20.88;57.34;99457.06;5049463;28;20101;-21
2021/05/02 01:31:17;;;;;;;18.23;5.00;;;;;;;20.84;57.41;99456.06;5049120;28;20107;-21
2021/05/02 01:33:43;;;;;;;17.65;5.35;;;;;;;20.60;58.26;99456.31;5049856;28;20090;-21
2021/05/02 01:36:08;;;;;;;19.70;5.82;;;;;;;19.93;60.03;99443.91;5049570;28;20075;-22
2021/05/02 01:38:34;;;;;;;20.50;5.90;;;;;;;19.87;60.74;99454.00;5049591;28;20033;-21
2021/05/02 01:40:59;;;;;;;14.98;4.78;;;;;;;19.96;60.69;99447.91;5048307;28;20136;-23
2021/05/02 01:43:25;;;;;;;12.32;4.80;;;;;;;19.88;60.90;99449.41;5049468;28;20041;-22
2021/05/02 01:45:51;;;;;;;16.50;5.07;;;;;;;19.91;60.91;99440.69;5048917;28;20024;-21
2021/05/02 01:48:17;;;;;;;18.80;5.22;;;;;;;19.89;61.11;99448.31;5049561;28;20067;-21
2021/05/02 01:51:00;;;;;;;14.45;5.30;;;;;;;19.66;61.47;99442.69;5049243;28;20054;-22
2021/05/02 01:53:27;;;;;;;15.57;4.97;;;;;;;19.46;62.23;99414.03;5031422;28;20055;-22
2021/05/02 01:55:52;;;;;;;14.40;5.88;;;;;;;19.40;62.25;99414.41;5048633;28;20485;-23
2021/05/02 01:58:18;;;;;;;19.42;6.38;;;;;;;19.26;62.40;99425.94;5047635;28;20044;-22
2021/05/02 02:00:57;;;;;;;16.20;5.45;;;;;;;19.27;62.26;99416.75;5034048;28;20034;-21
2021/05/02 02:03:23;;;;;;;14.57;5.47;;;;;;;19.52;61.68;99420.19;5041951;28;20036;-22
2021/05/02 02:05:48;;;;;;;13.50;4.75;;;;;;;19.47;60.85;99399.44;5048755;28;20033;-22
2021/05/02 02:08:14;;;;;;;13.60;4.47;;;;;;;19.42;61.47;99390.59;5048864;28;20037;-22
2021/05/02 02:10:39;;;;;;;17.55;5.07;;;;;;;19.36;61.26;99402.59;5048577;28;20028;-21
2021/05/02 02:13:07;;;;;;;15.90;5.57;;;;;;;19.32;61.64;99423.19;5048490;28;20033;-21
2021/05/02 02:15:32;;;;;;;14.93;4.63;;;;;;;19.39;61.53;99420.91;5047600;28;20409;-21
2021/05/02 02:17:58;;;;;;;14.07;4.70;;;;;;;19.42;61.87;99423.03;5048678;28;20021;-21
2021/05/02 02:20:25;;;;;;;15.88;5.10;;;;;;;19.25;61.70;99388.41;5047589;28;20028;-21
2021/05/02 02:23:01;;;;;;;16.52;5.38;;;;;;;19.51;61.37;99405.03;5047273;28;20131;-23
2021/05/02 02:25:28;;;;;;;14.27;4.97;;;;;;;19.52;61.14;99405.88;5047416;28;20064;-23
2021/05/02 02:27:57;;;;;;;15.27;5.25;;;;;;;19.48;61.34;99405.63;5048730;28;20029;-23
2021/05/02 02:30:25;;;;;;;15.07;4.35;;;;;;;19.51;61.15;99399.63;5047373;28;20480;-23
2021/05/02 02:32:51;;;;;;;17.38;4.60;;;;;;;19.67;60.32;99403.69;5048488;28;20049;-24
2021/05/02 02:35:17;;;;;;;10.35;4.15;;;;;;;19.46;60.86;99388.91;5047083;28;20220;-23
2021/05/02 02:37:44;;;;;;;15.15;5.38;;;;;;;19.03;61.83;99378.97;5048150;28;20528;-22
2021/05/02 02:40:10;;;;;;;17.73;5.37;;;;;;;18.95;61.47;99363.41;5047998;28;20112;-22
2021/05/02 02:42:36;;;;;;;11.68;3.80;;;;;;;18.97;61.85;99380.16;5047498;28;20206;-24
2021/05/02 02:45:06;;;;;;;13.43;4.63;;;;;;;18.82;61.91;99375.75;5048156;28;20029;-24
2021/05/02 02:47:49;;;;;;;10.18;4.20;;;;;;;18.78;62.02;99376.59;5046653;28;20097;-23
2021/05/02 02:50:16;;;;;;;12.68;4.35;;;;;;;18.78;61.54;99382.81;5046559;28;20073;-23
2021/05/02 02:52:44;;;;;;;13.48;4.28;;;;;;;19.01;60.83;99391.19;5048076;28;20036;-23
2021/05/02 02:55:11;;;;;;;14.68;4.55;;;;;;;19.14;60.05;99406.66;5046570;28;20040;-24
2021/05/02 02:57:42;;;;;;;16.33;4.47;;;;;;;19.36;59.35;99403.38;5034805;28;20085;-24
2021/05/02 03:00:08;;;;;;;15.30;4.53;;;;;;;19.45;59.04;99403.50;5027766;28;20037;-22
2021/05/02 03:02:37;;;;;;;18.77;4.55;;;;;;;19.40;58.91;99398.19;5028351;28;20452;-21
2021/05/02 03:05:03;;;;;;;12.95;4.28;;;;;;;19.59;58.55;99412.47;5027601;28;20029;-21
2021/05/02 03:07:31;;;;;;;15.25;4.63;;;;;;;19.65;58.28;99414.00;5027135;28;20436;-24
2021/05/02 03:09:57;;;;;;;17.00;5.10;;;;;;;19.21;59.47;99412.53;5043159;28;20444;-23
2021/05/02 03:12:25;;;;;;;21.08;11.98;;;;;;;19.17;60.01;99406.09;5029902;28;20060;-24
2021/05/02 03:14:53;;;;;;;13.43;4.65;;;;;;;19.25;59.27;99391.13;5046352;28;20041;-24
2021/05/02 03:17:28;;;;;;;16.00;4.60;;;;;;;19.44;58.76;99413.53;5046350;28;20083;-24
2021/05/02 03:20:07;;;;;;;16.20;4.45;;;;;;;19.44;58.49;99404.63;5046269;28;20033;-23
2021/05/02 03:22:50;;;;;;;9.93;3.90;;;;;;;19.21;59.67;99423.34;5047549;28;20021;-22
2021/05/02 03:25:16;;;;;;;14.52;4.20;;;;;;;19.15;59.73;99394.78;5046181;28;20040;-23
2021/05/02 03:28:03;;;;;;;18.27;4.55;;;;;;;19.10;59.51;99415.66;5046040;28;20048;-23
2021/05/02 03:30:29;;;;;;;20.53;5.00;;;;;;;19.44;59.28;99432.47;5013614;28;20035;-24
2021/05/02 03:32:55;;;;;;;15.65;4.45;;;;;;;19.81;57.47;99424.63;5047071;28;20275;-23
2021/05/02 03:35:27;;;;;;;18.00;4.40;;;;;;;19.78;57.47;99441.47;5047089;28;20037;-23
2021/05/02 03:38:14;;;;;;;13.27;4.30;;;;;;;19.86;57.78;99451.63;5046189;28;20128;-23
2021/05/02 03:40:39;;;;;;;14.38;4.30;;;;;;;19.82;57.26;99442.47;5047370;28;20117;-23
2021/05/02 03:43:05;;;;;;;14.65;4.30;;;;;;;19.93;56.99;99448.53;5045847;28;20512;-23
2021/05/02 03:45:31;;;;;;;14.77;4.93;;;;;;;19.75;57.49;99455.56;5047274;28;20032;-23
2021/05/02 03:47:57;;;;;;;19.65;4.25;;;;;;;19.81;56.91;99457.09;5046948;28;20409;-23
2021/05/02 03:50:22;;;;;;;13.48;4.95;;;;;;;19.89;56.08;99437.47;5046954;28;20135;-23
2021/05/02 03:52:48;;;;;;;17.30;4.22;;;;;;;20.16;56.04;99442.16;5046939;28;20044;-24
2021/05/02 03:55:13;;;;;;;12.57;4.60;;;;;;;20.46;55.41;99451.63;5046623;28;20041;-23
2021/05/02 03:57:39;;;;;;;13.45;4.47;;;;;;;20.73;54.77;99447.34;5047086;28;20028;-23
2021/05/02 04:00:05;;;;;;;27.77;5.45;;;;;;;20.65;54.68;99450.78;5047093;28;20102;-23
2021/05/02 04:02:30;;;;;;;15.32;4.18;;;;;;;20.50;55.22;99451.03;5045655;28;20417;-22
2021/05/02 04:04:56;;;;;;;14.18;4.88;;;;;;;20.62;54.58;99456.81;5047042;28;20033;-22
2021/05/02 04:07:21;;;;;;;14.85;4.50;;;;;;;20.90;54.27;99478.47;5046744;28;20435;-22
2021/05/02 04:09:47;;;;;;;15.07;4.45;;;;;;;21.16;53.95;99452.44;5046558;28;20044;-24
2021/05/02 04:12:12;;;;;;;16.50;4.68;;;;;;;20.80;54.02;99447.78;5045734;28;20486;-21
2021/05/02 04:14:38;;;;;;;15.60;4.05;;;;;;;21.04;54.40;99469.25;5047292;28;20025;-22
2021/05/02 04:17:08;;;;;;;16.58;4.57;;;;;;;21.17;54.86;99474.94;5046709;28;20018;-21
2021/05/02 04:19:35;;;;;;;13.93;4.85;;;;;;;20.71;55.07;99465.81;5050998;28;20111;-20
2021/05/02 04:22:01;;;;;;;14.60;4.25;;;;;;;20.72;55.72;99481.00;5050756;28;20043;-21
2021/05/02 04:24:26;;;;;;;16.63;4.85;;;;;;;20.90;55.39;99463.00;5049557;28;20029;-22
2021/05/02 04:26:54;;;;;;;17.83;4.80;;;;;;;20.36;57.49;99473.47;5050840;28;20485;-22
2021/05/02 04:29:23;;;;;;;16.83;4.57;;;;;;;20.10;57.71;99464.19;5049539;28;20029;-22
2021/05/02 04:31:50;;;;;;;20.17;5.60;;;;;;;20.21;57.27;99462.94;5051037;28;20433;-21
2021/05/02 04:34:15;;;;;;;16.38;4.28;;;;;;;20.15;57.16;99474.94;5050664;28;20416;-21
2021/05/02 04:36:41;;;;;;;18.88;5.35;;;;;;;20.10;57.19;99458.78;5050584;28;20024;-21
2021/05/02 04:39:06;;;;;;;16.23;4.55;;;;;;;20.38;56.34;99455.03;5050648;28;20092;-21
2021/05/02 04:41:32;;;;;;;16.23;4.40;;;;;;;20.60;55.17;99456.31;5050685;28;20400;-21
2021/05/02 04:43:57;;;;;;;15.18;4.68;;;;;;;21.00;55.01;99465.53;5050393;28;20029;-22
2021/05/02 04:46:23;;;;;;;17.90;4.28;;;;;;;20.71;55.46;99471.25;5050340;28;20112;-22
2021/05/02 04:48:48;;;;;;;13.88;4.75;;;;;;;20.18;57.41;99477.06;5049951;28;20122;-22
2021/05/02 04:51:14;;;;;;;11.68;4.68;;;;;;;20.13;58.11;99486.06;5048853;28;20036;-21
2021/05/02 04:53:43;;;;;;;13.13;4.32;;;;;;;20.37;57.54;99504.88;5050105;28;20497;-22
2021/05/02 04:56:09;;;;;;;12.93;4.45;;;;;;;20.71;56.95;99520.00;5050426;28;20025;-22
2021/05/02 04:58:34;;;;;;;16.30;5.57;;;;;;;21.02;56.41;99532.97;5050168;28;20028;-22
2021/05/02 05:01:00;;;;;;;17.55;6.90;;;;;;;21.04;56.59;99515.31;5049864;28;20040;-22
2021/05/02 05:03:25;;;;;;;17.20;6.35;;;;;;;21.24;56.78;99524.94;5050555;28;20041;-24
2021/05/02 05:05:51;;;;;;;20.38;5.72;;;;;;;20.78;57.77;99516.91;5048652;28;20033;-24
2021/05/02 05:08:16;;;;;;;12.88;4.90;;;;;;;20.19;59.21;99494.91;5050238;28;20147;-23
2021/05/02 05:10:42;;;;;;;25.13;5.25;;;;;;;19.92;59.76;99496.44;5050094;28;20469;-24
2021/05/02 05:13:09;;;;;;;20.58;6.20;;;;;;;19.99;60.85;99491.44;5049690;28;20079;-23
2021/05/02 05:15:34;;;;;;;19.88;5.55;;;;;;;20.07;61.12;99471.81;5049910;28;20028;-23
2021/05/02 05:18:00;;;;;;;14.55;4.45;;;;;;;20.72;58.33;99475.56;5050199;28;20040;-24
2021/05/02 05:20:25;;;;;;;17.70;4.88;;;;;;;20.79;57.26;99505.75;5049551;28;20056;-23
2021/05/02 05:22:51;;;;;;;17.63;5.10;;;;;;;20.87;57.10;99504.25;5050317;28;20114;-24
2021/05/02 05:25:16;;;;;;;16.45;4.63;;;;;;;20.92;56.62;99484.38;5049495;28;20025;-23
2021/05/02 05:27:42;;;;;;;14.23;4.72;;;;;;;21.06;55.17;99480.59;5049523;28;20021;-24
2021/05/02 05:30:09;;;;;;;15.98;4.85;;;;;;;21.13;56.19;99480.16;5048797;28;20029;-24
2021/05/02 05:32:35;;;;;;;13.65;5.80;;;;;;;21.34;56.44;99474.31;5049421;28;20029;-22
2021/05/02 05:35:01;;;;;;;13.85;4.88;;;;;;;21.25;55.57;99474.22;5049023;28;20497;-23
2021/05/02 05:37:26;;;;;;;16.02;6.00;;;;;;;21.26;56.20;99475.81;5049663;28;20052;-22
2021/05/02 05:39:52;;;;;;;16.63;6.60;;;;;;;21.30;55.76;99467.88;5047919;28;20025;-22
2021/05/02 05:42:18;;;;;;;16.05;5.93;;;;;;;21.38;55.40;99481.50;5049242;28;20170;-22
2021/05/02 05:44:43;;;;;;;14.45;4.68;;;;;;;21.28;55.25;99468.19;5049178;28;20064;-22
2021/05/02 05:47:09;;;;;;;20.65;5.57;;;;;;;21.42;54.66;99444.56;5049077;28;20079;-21
2021/05/02 05:49:37;;;;;;;17.42;4.72;;;;;;;21.49;54.83;99422.44;5049071;28;20045;-21
2021/05/02 05:52:02;;;;;;;25.83;5.78;;;;;;;21.92;53.85;99432.00;5048125;28;20033;-20
2021/05/02 05:54:28;;;;;;;17.95;4.68;;;;;;;21.85;53.41;99427.81;5049675;28;20067;-22
2021/05/02 05:56:53;;;;;;;13.52;4.80;;;;;;;21.49;54.57;99422.44;5049078;28;20017;-21
2021/05/02 05:59:19;;;;;;;27.13;16.27;;;;;;;21.75;54.52;99422.63;5048827;28;20095;-20
2021/05/02 06:01:45;;;;;;;14.93;4.50;;;;;;;21.80;55.29;99421.69;5049099;28;20033;-22
2021/05/02 06:04:10;;;;;;;11.93;4.45;;;;;;;21.96;55.75;99425.63;5048828;28;20122;-21
2021/05/02 06:06:36;;;;;;;15.02;4.38;;;;;;;22.32;53.57;99413.88;5048981;28;20029;-22
2021/05/02 06:09:03;;;;;;;13.05;4.63;;;;;;;22.16;53.69;99401.78;5048701;28;20095;-22
2021/05/02 06:11:29;;;;;;;15.13;4.43;;;;;;;22.54;53.38;99423.09;5048771;28;20552;-22
2021/05/02 06:13:55;;;;;;;12.98;4.43;;;;;;;22.68;51.80;99434.66;5048909;28;20083;-21
2021/05/02 06:16:21;;;;;;;13.40;4.25;;;;;;;22.80;52.02;99445.72;5048580;28;20473;-22
2021/05/02 06:18:46;;;;;;;14.13;4.22;;;;;;;22.20;53.42;99457.09;5048484;28;20033;-21
2021/05/02 06:21:11;;;;;;;14.68;4.32;;;;;;;22.40;53.87;99462.00;5048517;28;20052;-22
2021/05/02 06:23:37;;;;;;;12.10;4.32;;;;;;;22.46;52.53;99444.47;5048854;28;20033;-22
2021/05/02 06:26:02;;;;;;;13.07;3.97;;;;;;;22.63;52.93;99426.63;5047229;28;20025;-21
2021/05/02 06:28:28;;;;;;;12.70;4.20;;;;;;;22.68;53.50;99442.78;5048731;28;20086;-21
2021/05/02 06:30:53;;;;;;;12.95;5.22;;;;;;;22.85;52.34;99433.88;5047146;28;20037;-20
2021/05/02 06:33:19;;;;;;;14.65;6.13;;;;;;;23.20;51.82;99434.75;5048258;28;20539;-22
2021/05/02 06:35:44;;;;;;;16.98;4.68;;;;;;;23.35;52.09;99410.94;5048545;28;20033;-21
2021/05/02 06:38:10;;;;;;;12.95;5.07;;;;;;;23.55;52.20;99374.13;5048397;28;20405;-21
2021/05/02 06:40:35;;;;;;;16.23;5.00;;;;;;;23.71;50.76;99409.81;5046607;28;20032;-22
2021/05/02 06:43:01;;;;;;;15.43;4.38;;;;;;;23.61;52.86;99403.56;5047581;28;20500;-21
2021/05/02 06:45:26;;;;;;;15.55;4.72;;;;;;;23.60;51.42;99393.81;5048247;28;20036;-21
2021/05/02 06:47:52;;;;;;;14.75;4.60;;;;;;;23.84;51.51;99417.00;5047897;28;20029;-22
2021/05/02 06:50:17;;;;;;;18.23;4.72;;;;;;;23.80;51.04;99413.31;5047727;28;20060;-22
2021/05/02 06:52:43;;;;;;;15.35;3.65;;;;;;;24.15;49.78;99427.69;5048008;28;20033;-21
2021/05/02 06:55:09;;;;;;;15.93;4.40;;;;;;;23.87;49.88;99424.53;5047482;28;20029;-19
2021/05/02 06:57:34;;;;;;;15.40;4.72;;;;;;;23.88;49.73;99425.31;5047779;28;20511;-21
2021/05/02 07:00:00;;;;;;;16.77;5.28;;;;;;;24.05;50.24;99426.09;5047794;28;20037;-22
2021/05/02 07:02:25;;;;;;;12.15;5.00;;;;;;;24.19;48.76;99408.75;5047637;28;20033;-21
2021/05/02 07:04:51;;;;;;;17.05;4.60;;;;;;;24.50;48.45;99413.13;5047986;28;20032;-20
2021/05/02 07:07:16;;;;;;;18.65;4.65;;;;;;;24.80;47.78;99422.91;5047619;28;20029;-21
2021/05/02 07:09:42;;;;;;;13.90;4.68;;;;;;;24.77;49.13;99431.75;5044517;28;20575;-21
2021/05/02 07:12:07;;;;;;;15.00;4.78;;;;;;;24.90;48.57;99437.31;5035566;28;20087;-21
2021/05/02 07:14:33;;;;;;;14.80;4.45;;;;;;;24.76;49.10;99449.25;5035006;28;20076;-22
2021/05/02 07:16:58;;;;;;;15.45;4.72;;;;;;;24.90;48.34;99454.47;5027300;28;20026;-22
2021/05/02 07:19:24;;;;;;;11.77;4.13;;;;;;;25.18;48.36;99456.72;5027484;28;20037;-22
2021/05/02 07:21:57;;;;;;;13.40;4.05;;;;;;;25.19;46.15;99470.03;5036993;28;20021;-22
2021/05/02 07:24:23;;;;;;;15.63;3.97;;;;;;;25.49;46.01;99464.53;5037404;28;20036;-22
2021/05/02 07:26:48;;;;;;;15.23;4.90;;;;;;;25.54;46.12;99456.16;5017603;28;20464;-21
2021/05/02 07:29:14;;;;;;;12.88;3.97;;;;;;;25.41;46.19;99438.09;5036190;28;20029;-21
2021/05/02 07:31:39;;;;;;;14.02;5.18;;;;;;;25.72;45.80;99434.94;5036501;28;20021;-22
2021/05/02 07:34:04;;;;;;;15.20;4.40;;;;;;;25.70;45.49;99431.75;5034882;28;20108;-22
2021/05/02 07:36:30;;;;;;;18.98;4.97;;;;;;;25.81;46.16;99426.69;5036656;28;20033;-22
2021/05/02 07:38:56;;;;;;;14.68;4.10;;;;;;;25.66;45.27;99442.56;5035814;28;20037;-22
2021/05/02 07:41:22;;;;;;;17.55;4.30;;;;;;;25.45;45.33;99436.31;5032522;28;20031;-23
2021/05/02 07:43:47;;;;;;;11.10;3.70;;;;;;;25.53;45.94;99446.34;5026679;28;20037;-22
2021/05/02 07:46:13;;;;;;;15.00;4.13;;;;;;;25.42;46.68;99439.72;5026671;28;20033;-22
2021/05/02 07:48:38;;;;;;;14.43;4.45;;;;;;;25.15;46.64;99449.19;5026663;28;20042;-21
2021/05/02 07:51:04;;;;;;;13.68;4.32;;;;;;;25.06;46.21;99446.50;5027080;28;20087;-21
2021/05/02 07:53:30;;;;;;;15.02;4.78;;;;;;;24.91;46.84;99441.63;5025690;28;20401;-22
2021/05/02 07:55:55;;;;;;;13.07;3.78;;;;;;;25.34;47.24;99446.84;5044441;28;20040;-21
2021/05/02 07:58:21;;;;;;;12.18;4.25;;;;;;;25.43;49.33;99441.31;5047110;28;20853;-20
2021/05/02 08:00:46;;;;;;;12.27;4.10;;;;;;;25.34;46.47;99440.59;5039357;28;20033;-22
2021/05/02 08:03:12;;;;;;;13.57;4.50;;;;;;;25.17;46.50;99425.09;5027418;28;20133;-22
2021/05/02 08:05:37;;;;;;;16.27;4.22;;;;;;;25.08;47.85;99413.47;5027278;28;20570;-23
2021/05/02 08:08:03;;;;;;;10.95;3.58;;;;;;;25.30;46.85;99415.09;5029467;28;20033;-22
2021/05/02 08:10:29;;;;;;;11.05;3.53;;;;;;;25.36;47.19;99400.91;5045870;28;20100;-22
2021/05/02 08:12:55;;;;;;;12.63;3.90;;;;;;;25.75;45.58;99395.25;5047419;28;20432;-22
2021/05/02 08:15:21;;;;;;;16.27;4.18;;;;;;;25.37;45.98;99382.59;5044588;28;20118;-22
2021/05/02 08:17:46;;;;;;;14.13;3.97;;;;;;;25.51;46.68;99380.38;5045478;28;20071;-22
2021/05/02 08:20:12;;;;;;;15.27;4.82;;;;;;;25.64;45.86;99390.22;5045851;28;20079;-22
2021/05/02 08:22:38;;;;;;;14.77;4.10;;;;;;;25.76;46.36;99407.75;5045739;28;20095;-22
2021/05/02 08:25:04;;;;;;;13.07;3.70;;;;;;;25.69;45.04;99393.88;5046325;28;20037;-23
2021/05/02 08:27:30;;;;;;;14.68;4.15;;;;;;;25.77;46.55;99393.00;5047066;28;20033;-23
2021/05/02 08:29:56;;;;;;;14.60;4.72;;;;;;;26.13;46.11;99388.75;5046259;28;20044;-21
2021/05/02 08:32:21;;;;;;;17.83;4.20;;;;;;;26.37;45.42;99391.50;5038858;28;20041;-21
2021/05/02 08:34:47;;;;;;;15.48;4.53;;;;;;;26.64;43.84;99392.00;5026142;28;20065;-21
2021/05/02 08:37:12;;;;;;;11.13;3.85;;;;;;;26.81;42.78;99386.28;5036323;28;20797;-22
2021/05/02 08:39:37;;;;;;;12.98;4.28;;;;;;;27.59;43.47;99406.16;5037675;28;20036;-22
2021/05/02 08:42:03;;;;;;;10.88;3.95;;;;;;;28.19;39.30;99408.13;5033629;28;20041;-22
2021/05/02 08:44:29;;;;;;;12.68;3.92;;;;;;;28.18;39.08;99398.31;5046912;28;20083;-22
2021/05/02 08:46:54;;;;;;;21.88;4.75;;;;;;;28.11;38.81;99395.38;5037910;28;20032;-22
2021/05/02 08:49:20;;;;;;;16.75;4.00;;;;;;;28.13;38.16;99404.06;5030475;28;20081;-21
2021/05/02 08:51:46;;;;;;;23.33;5.00;;;;;;;28.24;42.40;99394.16;5032777;28;20060;-22
2021/05/02 08:54:12;;;;;;;39.35;6.03;;;;;;;28.19;40.78;99392.47;5025315;28;20083;-22
2021/05/02 08:56:37;;;;;;;15.48;4.45;;;;;;;27.88;40.09;99409.69;5037609;28;20489;-22
2021/05/02 08:59:03;;;;;;;15.07;4.70;;;;;;;28.23;39.63;99406.25;5025714;28;20044;-23
2021/05/02 09:01:29;;;;;;;12.93;4.32;;;;;;;28.59;39.05;99426.38;5025821;28;20485;-23
2021/05/02 09:03:55;;;;;;;20.13;3.97;;;;;;;28.81;38.53;99427.66;5026040;28;20041;-23
2021/05/02 09:06:26;;;;;;;14.20;3.80;;;;;;;28.87;41.67;99419.94;5028607;28;20033;-21
2021/05/02 09:09:01;;;;;;;16.00;4.47;;;;;;;28.69;40.51;99431.31;5012888;28;20033;-22
2021/05/02 09:11:33;;;;;;;13.10;4.45;;;;;;;28.50;39.12;99439.47;5036408;28;20128;-22
2021/05/02 09:13:59;;;;;;;14.15;3.90;;;;;;;28.37;39.37;99442.28;5030385;28;20083;-22
2021/05/02 09:16:26;;;;;;;15.70;4.77;;;;;;;28.13;40.16;99440.47;5030226;28;20899;-22
2021/05/02 09:18:56;;;;;;;16.85;4.80;;;;;;;28.00;42.67;99445.25;5028867;28;20140;-22
2021/05/02 09:21:24;;;;;;;18.15;5.95;;;;;;;28.65;40.87;99446.91;5012507;28;20050;-21
2021/05/02 09:23:50;;;;;;;13.80;4.82;;;;;;;28.95;39.69;99436.22;5029721;28;20036;-21
2021/05/02 09:26:36;;;;;;;15.35;4.90;;;;;;;28.69;39.45;99436.81;5043898;28;20037;-21
2021/05/02 09:29:06;;;;;;;13.75;4.72;;;;;;;28.25;40.59;99443.13;5044689;28;20033;-21
2021/05/02 09:31:35;;;;;;;15.10;4.97;;;;;;;28.36;40.96;99462.63;5028247;28;20045;-21
2021/05/02 09:34:13;;;;;;;15.20;4.88;;;;;;;28.28;43.47;99471.00;5029608;28;20068;-21
2021/05/02 09:36:56;;;;;;;14.88;4.00;;;;;;;27.86;42.93;99474.97;5029255;28;20083;-23
2021/05/02 09:39:55;;;;;;;11.30;4.20;;;;;;;28.04;40.97;99468.06;5028091;28;20129;-22
2021/05/02 09:42:32;;;;;;;17.70;4.70;;;;;;;27.70;42.41;99468.66;5027207;28;20258;-21
2021/05/02 09:44:58;;;;;;;12.97;4.00;;;;;;;27.47;42.33;99450.00;5025482;28;20120;-22
2021/05/02 09:47:25;;;;;;;11.65;4.25;;;;;;;27.00;42.33;99456.81;5030013;28;20448;-22
2021/05/02 09:50:16;;;;;;;15.13;4.30;;;;;;;27.03;42.73;99452.59;5026843;28;20048;-22
2021/05/02 09:52:42;;;;;;;13.52;4.05;;;;;;;27.44;40.76;99462.47;5027887;28;20038;-22
2021/05/02 09:55:22;;;;;;;12.48;3.83;;;;;;;27.58;43.07;99461.25;5027101;28;20029;-22
2021/05/02 09:58:11;;;;;;;16.55;4.32;;;;;;;26.96;43.30;99455.91;5028202;28;20112;-21
2021/05/02 10:00:37;;;;;;;14.90;3.75;;;;;;;26.98;45.22;99466.50;5028747;28;20497;-21
2021/05/02 10:03:06;;;;;;;13.55;4.45;;;;;;;27.07;42.48;99448.00;5028724;28;20059;-23
2021/05/02 10:05:31;;;;;;;14.05;4.45;;;;;;;27.19;42.71;99445.25;5027804;28;20045;-21
2021/05/02 10:07:57;;;;;;;13.57;4.07;;;;;;;27.19;43.36;99449.94;5009266;28;20033;-22
2021/05/02 10:10:23;;;;;;;15.15;4.22;;;;;;;26.83;45.81;99432.44;5026014;28;20084;-21
2021/05/02 10:12:52;;;;;;;12.48;3.92;;;;;;;26.38;45.73;99439.59;5027803;28;20025;-21
2021/05/02 10:15:18;;;;;;;15.50;4.25;;;;;;;26.50;46.50;99421.59;5027155;28;20513;-22
2021/05/02 10:17:47;;;;;;;14.17;4.83;;;;;;;26.64;45.88;99424.81;5025991;28;20112;-22
2021/05/02 10:20:13;;;;;;;11.73;4.07;;;;;;;26.66;45.53;99430.72;5026156;28;20030;-21
2021/05/02 10:22:40;;;;;;;15.98;4.60;;;;;;;26.59;45.86;99405.91;5028358;28;20057;-22
2021/05/02 10:25:06;;;;;;;14.20;4.95;;;;;;;26.67;45.50;99405.00;5028102;28;20104;-21
2021/05/02 10:27:31;;;;;;;15.23;4.30;;;;;;;26.84;46.03;99388.31;5028747;28;20120;-21
2021/05/02 10:29:58;;;;;;;20.83;5.10;;;;;;;26.78;45.06;99376.00;5028882;28;20037;-22
2021/05/02 10:32:24;;;;;;;14.60;4.20;;;;;;;27.03;45.05;99393.19;5027320;28;20045;-22
2021/05/02 10:34:53;;;;;;;14.65;4.78;;;;;;;27.08;44.60;99396.84;5027269;28;20888;-22
2021/05/02 10:37:22;;;;;;;11.68;3.88;;;;;;;27.47;44.79;99394.47;5028308;28;20045;-22
2021/05/02 10:40:09;;;;;;;12.57;3.97;;;;;;;27.27;44.50;99390.75;5034932;28;20116;-23
2021/05/02 10:42:38;;;;;;;15.45;3.92;;;;;;;27.52;43.77;99400.47;5029330;28;20029;-22
2021/05/02 10:45:35;;;;;;;9.50;3.25;;;;;;;27.45;42.77;99389.31;5027847;28;20025;-23
2021/05/02 10:48:03;;;;;;;14.00;4.50;;;;;;;27.68;43.41;99364.91;5028005;28;20069;-22
2021/05/02 10:50:35;;;;;;;12.43;3.78;;;;;;;27.64;43.22;99373.03;5028138;28;20058;-23
2021/05/02 10:53:09;;;;;;;15.65;4.53;;;;;;;28.14;42.29;99372.78;5028303;28;20029;-22
2021/05/02 10:55:55;;;;;;;16.45;4.10;;;;;;;28.39;39.94;99379.63;5027772;28;20037;-23
2021/05/02 10:58:24;;;;;;;14.40;3.75;;;;;;;28.55;40.52;99365.94;5038239;28;20036;-22
2021/05/02 11:00:59;;;;;;;12.20;4.03;;;;;;;28.36;40.71;99358.44;5034975;28;20044;-22
2021/05/02 11:03:51;;;;;;;14.00;4.25;;;;;;;28.89;39.33;99368.25;5036780;28;20033;-23
2021/05/02 11:06:39;;;;;;;12.55;4.20;;;;;;;28.99;40.84;99368.50;5036659;28;20117;-22
2021/05/02 11:09:11;;;;;;;14.70;4.35;;;;;;;28.97;40.00;99378.22;5036041;28;20052;-22
2021/05/02 11:11:41;;;;;;;12.75;3.83;;;;;;;29.58;39.27;99361.03;5038631;28;20027;-21
2021/05/02 11:14:10;;;;;;;10.77;3.78;;;;;;;30.15;38.96;99366.75;5036815;28;20030;-23
2021/05/02 11:16:36;;;;;;;17.10;4.22;;;;;;;30.07;36.80;99347.78;5035377;28;20053;-23
2021/05/02 11:19:02;;;;;;;12.93;4.47;;;;;;;30.30;36.88;99362.34;5042126;28;20046;-23
2021/05/02 11:21:46;;;;;;;13.02;4.10;;;;;;;30.46;37.58;99369.63;5045386;28;20467;-22
2021/05/02 11:24:11;;;;;;;15.80;4.63;;;;;;;30.08;36.28;99338.34;5047910;28;20805;-22
2021/05/02 11:26:56;;;;;;;12.48;3.95;;;;;;;30.24;35.90;99363.78;5045581;28;20025;-22
2021/05/02 11:29:23;;;;;;;22.50;4.15;;;;;;;30.77;35.45;99347.28;5046772;28;20047;-22
2021/05/02 11:31:48;;;;;;;20.30;5.00;;;;;;;31.70;35.12;99349.59;5046065;28;20037;-21